Seven Hills, Ohio
Current Conditions -  °F | °C
As of 4:53 AM on Saturday 25 Oct 2014 (Local Time) from KBKL Reporting Station
Clear Clear  
Wind Chill: 55°   Ceiling: Unl
Heat Index: 55°   Visibility: 10mi
Dew Point: 44°   Wind: 14mph
Humidity: 67%   Direction: 220°SW
Pressure: 29.91"   Gusts: 17mph
Location:  41.3833°N, 81.6531°W
Report Text: KBKL 250853Z AUTO 22012G15KT 10SM CLR 13/07 A2991 RMK AO2 SLP127 T01280067 58017
Loading
Personal Weather Stations






























Interactive Weather Map
Tropical Storm Tracking
New forecast layout! Learn more

10-Day Weather Forecast

Advertisements
Track Severe Weather on mobile